Terminal Aerodrome Forecast
Issued by NWS

Current Version | Previous Version | Text Only | Print | Product List | Glossary Off
Versions: 1 2 3 4 5 6 7 8 9 10 11 12 13 14 15 16 17 18 19 20 21 22 23 24 25 26

587
FTUS41 KILN 041502 AAA
TAFLUK
TAF AMD
KLUK 041502Z 0415/0512 10005KT P6SM OVC090
     FM041600 12008KT P6SM VCSH OVC050
     FM042000 14008KT 4SM -RA BR OVC028
     FM042200 14008KT 4SM -RA BR OVC015
     FM050000 17006KT 4SM -RA BR OVC009
     FM050300 27008KT P6SM OVC009=

USA.gov is the U.S. government's official web portal to all federal, state and local government web resources and services.